sensor_id;sensor_type;location;lat;lon;timestamp;temperature;humidity
16517;DHT22;8371;52.272;9.746;2022-07-03T00:01:20;20.60;44.40
16517;DHT22;8371;52.272;9.746;2022-07-03T00:03:46;20.60;44.00
16517;DHT22;8371;52.272;9.746;2022-07-03T00:06:12;20.60;44.00
16517;DHT22;8371;52.272;9.746;2022-07-03T00:08:38;20.60;44.00
16517;DHT22;8371;52.272;9.746;2022-07-03T00:11:07;20.60;44.00
16517;DHT22;8371;52.272;9.746;2022-07-03T00:13:34;20.60;44.00
16517;DHT22;8371;52.272;9.746;2022-07-03T00:15:59;20.60;44.00
16517;DHT22;8371;52.272;9.746;2022-07-03T00:18:25;20.60;44.10
16517;DHT22;8371;52.272;9.746;2022-07-03T00:21:02;20.60;44.10
16517;DHT22;8371;52.272;9.746;2022-07-03T00:23:30;20.60;44.20
16517;DHT22;8371;52.272;9.746;2022-07-03T00:25:58;20.60;44.00
16517;DHT22;8371;52.272;9.746;2022-07-03T00:28:26;20.50;44.10
16517;DHT22;8371;52.272;9.746;2022-07-03T00:30:55;20.60;44.30
16517;DHT22;8371;52.272;9.746;2022-07-03T00:33:21;20.50;44.20
16517;DHT22;8371;52.272;9.746;2022-07-03T00:35:48;20.50;44.30
16517;DHT22;8371;52.272;9.746;2022-07-03T00:38:16;20.50;44.40
16517;DHT22;8371;52.272;9.746;2022-07-03T00:40:43;20.50;44.60
16517;DHT22;8371;52.272;9.746;2022-07-03T00:43:09;20.50;44.70
16517;DHT22;8371;52.272;9.746;2022-07-03T00:45:36;20.40;44.70
16517;DHT22;8371;52.272;9.746;2022-07-03T00:48:05;20.40;45.00
16517;DHT22;8371;52.272;9.746;2022-07-03T00:50:35;20.40;45.00
16517;DHT22;8371;52.272;9.746;2022-07-03T00:53:02;20.40;45.10
16517;DHT22;8371;52.272;9.746;2022-07-03T00:55:28;20.30;45.70
16517;DHT22;8371;52.272;9.746;2022-07-03T00:57:55;20.30;45.30
16517;DHT22;8371;52.272;9.746;2022-07-03T01:00:22;20.30;45.40
16517;DHT22;8371;52.272;9.746;2022-07-03T01:02:56;20.20;45.50
16517;DHT22;8371;52.272;9.746;2022-07-03T01:05:32;20.20;45.60
16517;DHT22;8371;52.272;9.746;2022-07-03T01:11:04;20.00;45.80
16517;DHT22;8371;52.272;9.746;2022-07-03T01:13:52;19.90;45.80
16517;DHT22;8371;52.272;9.746;2022-07-03T01:22:09;19.70;46.40
16517;DHT22;8371;52.272;9.746;2022-07-03T01:27:14;19.60;46.80
16517;DHT22;8371;52.272;9.746;2022-07-03T01:32:16;19.50;46.90
16517;DHT22;8371;52.272;9.746;2022-07-03T01:34:46;19.50;47.00
16517;DHT22;8371;52.272;9.746;2022-07-03T01:37:15;19.50;47.10
16517;DHT22;8371;52.272;9.746;2022-07-03T01:39:43;19.50;47.40
16517;DHT22;8371;52.272;9.746;2022-07-03T01:42:10;19.50;47.50
16517;DHT22;8371;52.272;9.746;2022-07-03T01:44:38;19.50;47.50
16517;DHT22;8371;52.272;9.746;2022-07-03T01:47:05;19.40;47.10
16517;DHT22;8371;52.272;9.746;2022-07-03T01:49:32;19.30;46.80
16517;DHT22;8371;52.272;9.746;2022-07-03T01:52:01;19.30;47.00
16517;DHT22;8371;52.272;9.746;2022-07-03T01:54:29;19.10;47.10
16517;DHT22;8371;52.272;9.746;2022-07-03T01:56:55;19.00;47.40
16517;DHT22;8371;52.272;9.746;2022-07-03T01:59:21;19.00;47.70
16517;DHT22;8371;52.272;9.746;2022-07-03T02:01:52;18.90;47.80
16517;DHT22;8371;52.272;9.746;2022-07-03T02:04:24;18.80;48.10
16517;DHT22;8371;52.272;9.746;2022-07-03T02:06:58;18.70;48.10
16517;DHT22;8371;52.272;9.746;2022-07-03T02:09:24;18.70;48.20
16517;DHT22;8371;52.272;9.746;2022-07-03T02:11:50;18.70;48.30
16517;DHT22;8371;52.272;9.746;2022-07-03T02:14:18;18.60;48.30
16517;DHT22;8371;52.272;9.746;2022-07-03T02:16:50;18.60;48.60
16517;DHT22;8371;52.272;9.746;2022-07-03T02:19:18;18.60;48.70
16517;DHT22;8371;52.272;9.746;2022-07-03T02:21:50;18.50;48.90
16517;DHT22;8371;52.272;9.746;2022-07-03T02:24:24;18.50;49.00
16517;DHT22;8371;52.272;9.746;2022-07-03T02:26:54;18.40;49.10
16517;DHT22;8371;52.272;9.746;2022-07-03T02:29:28;18.40;49.10
16517;DHT22;8371;52.272;9.746;2022-07-03T02:31:59;18.30;49.20
16517;DHT22;8371;52.272;9.746;2022-07-03T02:34:27;18.30;49.20
16517;DHT22;8371;52.272;9.746;2022-07-03T02:36:56;18.30;49.20
16517;DHT22;8371;52.272;9.746;2022-07-03T02:39:29;18.20;49.30
16517;DHT22;8371;52.272;9.746;2022-07-03T02:42:00;18.20;49.30
16517;DHT22;8371;52.272;9.746;2022-07-03T02:44:47;18.10;49.30
16517;DHT22;8371;52.272;9.746;2022-07-03T02:47:37;18.10;49.40
16517;DHT22;8371;52.272;9.746;2022-07-03T02:50:04;18.00;49.50
16517;DHT22;8371;52.272;9.746;2022-07-03T02:55:39;18.00;49.50
16517;DHT22;8371;52.272;9.746;2022-07-03T03:01:07;17.90;49.30
16517;DHT22;8371;52.272;9.746;2022-07-03T03:03:34;17.80;49.40
16517;DHT22;8371;52.272;9.746;2022-07-03T03:06:09;17.70;49.60
16517;DHT22;8371;52.272;9.746;2022-07-03T03:08:49;17.70;49.70
16517;DHT22;8371;52.272;9.746;2022-07-03T03:11:29;17.60;49.80
16517;DHT22;8371;52.272;9.746;2022-07-03T03:13:56;17.60;49.90
16517;DHT22;8371;52.272;9.746;2022-07-03T03:16:23;17.60;50.20
16517;DHT22;8371;52.272;9.746;2022-07-03T03:18:48;17.60;50.40
16517;DHT22;8371;52.272;9.746;2022-07-03T03:21:18;17.60;50.70
16517;DHT22;8371;52.272;9.746;2022-07-03T03:23:50;17.60;50.80
16517;DHT22;8371;52.272;9.746;2022-07-03T03:26:19;17.70;50.90
16517;DHT22;8371;52.272;9.746;2022-07-03T03:28:45;17.70;51.00
16517;DHT22;8371;52.272;9.746;2022-07-03T03:31:11;17.80;51.00
16517;DHT22;8371;52.272;9.746;2022-07-03T03:33:42;17.90;51.00
16517;DHT22;8371;52.272;9.746;2022-07-03T03:36:10;18.00;51.10
16517;DHT22;8371;52.272;9.746;2022-07-03T03:38:37;18.00;51.00
16517;DHT22;8371;52.272;9.746;2022-07-03T03:41:03;18.10;50.90
16517;DHT22;8371;52.272;9.746;2022-07-03T03:43:30;18.20;50.90
16517;DHT22;8371;52.272;9.746;2022-07-03T03:45:57;18.30;51.00
16517;DHT22;8371;52.272;9.746;2022-07-03T03:48:23;18.40;51.00
16517;DHT22;8371;52.272;9.746;2022-07-03T03:50:49;18.40;51.10
16517;DHT22;8371;52.272;9.746;2022-07-03T03:53:17;18.60;51.30
16517;DHT22;8371;52.272;9.746;2022-07-03T03:55:56;18.70;51.30
16517;DHT22;8371;52.272;9.746;2022-07-03T03:58:21;18.90;51.40
16517;DHT22;8371;52.272;9.746;2022-07-03T04:00:47;19.10;51.50
16517;DHT22;8371;52.272;9.746;2022-07-03T04:03:12;19.30;51.70
16517;DHT22;8371;52.272;9.746;2022-07-03T04:05:38;19.60;51.90
16517;DHT22;8371;52.272;9.746;2022-07-03T04:08:04;19.90;52.60
16517;DHT22;8371;52.272;9.746;2022-07-03T04:10:29;20.20;51.90
16517;DHT22;8371;52.272;9.746;2022-07-03T04:12:55;20.60;51.90
16517;DHT22;8371;52.272;9.746;2022-07-03T04:15:21;21.00;51.70
16517;DHT22;8371;52.272;9.746;2022-07-03T04:17:52;21.40;51.60
16517;DHT22;8371;52.272;9.746;2022-07-03T04:20:18;21.80;51.30
16517;DHT22;8371;52.272;9.746;2022-07-03T04:22:43;22.20;51.10
16517;DHT22;8371;52.272;9.746;2022-07-03T04:25:09;22.60;50.80
16517;DHT22;8371;52.272;9.746;2022-07-03T04:27:35;23.00;50.60
16517;DHT22;8371;52.272;9.746;2022-07-03T04:30:00;23.30;50.20
16517;DHT22;8371;52.272;9.746;2022-07-03T04:32:26;23.70;49.70
16517;DHT22;8371;52.272;9.746;2022-07-03T04:34:52;24.10;49.30
16517;DHT22;8371;52.272;9.746;2022-07-03T04:37:17;24.40;48.90
16517;DHT22;8371;52.272;9.746;2022-07-03T04:39:43;24.70;48.50
16517;DHT22;8371;52.272;9.746;2022-07-03T04:42:09;25.00;48.20
16517;DHT22;8371;52.272;9.746;2022-07-03T04:44:34;25.30;47.80
16517;DHT22;8371;52.272;9.746;2022-07-03T04:47:00;25.50;47.50
16517;DHT22;8371;52.272;9.746;2022-07-03T04:49:26;25.80;47.50
16517;DHT22;8371;52.272;9.746;2022-07-03T04:51:51;26.00;47.00
16517;DHT22;8371;52.272;9.746;2022-07-03T04:54:18;26.20;46.80
16517;DHT22;8371;52.272;9.746;2022-07-03T04:56:44;26.40;46.50
16517;DHT22;8371;52.272;9.746;2022-07-03T04:59:10;26.60;46.20
16517;DHT22;8371;52.272;9.746;2022-07-03T05:01:35;26.80;46.00
16517;DHT22;8371;52.272;9.746;2022-07-03T05:04:01;27.00;45.80
16517;DHT22;8371;52.272;9.746;2022-07-03T05:06:27;27.10;45.50
16517;DHT22;8371;52.272;9.746;2022-07-03T05:08:52;27.20;45.30
16517;DHT22;8371;52.272;9.746;2022-07-03T05:11:18;27.30;45.10
16517;DHT22;8371;52.272;9.746;2022-07-03T05:13:44;27.40;44.80
16517;DHT22;8371;52.272;9.746;2022-07-03T05:16:09;27.50;44.80
16517;DHT22;8371;52.272;9.746;2022-07-03T05:18:35;27.60;44.50
16517;DHT22;8371;52.272;9.746;2022-07-03T05:21:02;27.70;44.40
16517;DHT22;8371;52.272;9.746;2022-07-03T05:23:28;27.70;44.30
16517;DHT22;8371;52.272;9.746;2022-07-03T05:25:53;27.80;44.10
16517;DHT22;8371;52.272;9.746;2022-07-03T05:28:20;27.80;43.90
16517;DHT22;8371;52.272;9.746;2022-07-03T05:30:46;27.90;43.70
16517;DHT22;8371;52.272;9.746;2022-07-03T05:33:12;27.90;43.60
16517;DHT22;8371;52.272;9.746;2022-07-03T05:35:38;28.00;43.40
16517;DHT22;8371;52.272;9.746;2022-07-03T05:38:03;28.00;43.30
16517;DHT22;8371;52.272;9.746;2022-07-03T05:40:29;28.00;43.20
16517;DHT22;8371;52.272;9.746;2022-07-03T05:42:55;28.00;43.10
16517;DHT22;8371;52.272;9.746;2022-07-03T05:45:20;28.10;43.00
16517;DHT22;8371;52.272;9.746;2022-07-03T05:47:46;28.10;43.00
16517;DHT22;8371;52.272;9.746;2022-07-03T05:50:12;28.10;42.90
16517;DHT22;8371;52.272;9.746;2022-07-03T05:52:38;28.10;43.10
16517;DHT22;8371;52.272;9.746;2022-07-03T05:55:04;28.20;43.00
16517;DHT22;8371;52.272;9.746;2022-07-03T05:57:30;28.20;42.90
16517;DHT22;8371;52.272;9.746;2022-07-03T05:59:56;28.30;42.60
16517;DHT22;8371;52.272;9.746;2022-07-03T06:02:21;28.30;42.40
16517;DHT22;8371;52.272;9.746;2022-07-03T06:04:47;28.30;42.40
16517;DHT22;8371;52.272;9.746;2022-07-03T06:07:13;28.40;42.30
16517;DHT22;8371;52.272;9.746;2022-07-03T06:09:38;28.50;42.30
16517;DHT22;8371;52.272;9.746;2022-07-03T06:12:04;28.50;42.40
16517;DHT22;8371;52.272;9.746;2022-07-03T06:14:30;28.50;42.40
16517;DHT22;8371;52.272;9.746;2022-07-03T06:16:56;28.60;42.40
16517;DHT22;8371;52.272;9.746;2022-07-03T06:19:22;28.60;42.20
16517;DHT22;8371;52.272;9.746;2022-07-03T06:21:47;28.70;42.20
16517;DHT22;8371;52.272;9.746;2022-07-03T06:24:13;28.70;42.00
16517;DHT22;8371;52.272;9.746;2022-07-03T06:26:39;28.80;42.00
16517;DHT22;8371;52.272;9.746;2022-07-03T06:29:04;28.90;42.00
16517;DHT22;8371;52.272;9.746;2022-07-03T06:31:30;28.90;42.00
16517;DHT22;8371;52.272;9.746;2022-07-03T06:33:57;29.10;42.00
16517;DHT22;8371;52.272;9.746;2022-07-03T06:36:22;29.20;41.90
16517;DHT22;8371;52.272;9.746;2022-07-03T06:38:48;29.30;41.90
16517;DHT22;8371;52.272;9.746;2022-07-03T06:41:13;29.40;41.80
16517;DHT22;8371;52.272;9.746;2022-07-03T06:43:39;29.50;41.70
16517;DHT22;8371;52.272;9.746;2022-07-03T06:46:05;29.80;41.80
16517;DHT22;8371;52.272;9.746;2022-07-03T06:48:30;29.90;41.70
16517;DHT22;8371;52.272;9.746;2022-07-03T06:50:56;30.20;41.60
16517;DHT22;8371;52.272;9.746;2022-07-03T06:53:22;30.40;41.50
16517;DHT22;8371;52.272;9.746;2022-07-03T06:55:47;30.50;41.50
16517;DHT22;8371;52.272;9.746;2022-07-03T06:58:14;30.70;41.30
16517;DHT22;8371;52.272;9.746;2022-07-03T07:00:40;30.80;40.90
16517;DHT22;8371;52.272;9.746;2022-07-03T07:03:06;31.00;40.80
16517;DHT22;8371;52.272;9.746;2022-07-03T07:05:31;31.30;40.30
16517;DHT22;8371;52.272;9.746;2022-07-03T07:07:57;31.40;40.00
16517;DHT22;8371;52.272;9.746;2022-07-03T07:10:23;31.50;39.50
16517;DHT22;8371;52.272;9.746;2022-07-03T07:12:48;31.60;39.30
16517;DHT22;8371;52.272;9.746;2022-07-03T07:15:14;31.80;39.20
16517;DHT22;8371;52.272;9.746;2022-07-03T07:17:41;31.90;39.00
16517;DHT22;8371;52.272;9.746;2022-07-03T07:20:07;32.10;38.80
16517;DHT22;8371;52.272;9.746;2022-07-03T07:22:33;32.20;38.50
16517;DHT22;8371;52.272;9.746;2022-07-03T07:24:59;32.30;38.30
16517;DHT22;8371;52.272;9.746;2022-07-03T07:27:24;32.50;38.10
16517;DHT22;8371;52.272;9.746;2022-07-03T07:29:50;32.60;37.70
16517;DHT22;8371;52.272;9.746;2022-07-03T07:32:16;32.70;37.80
16517;DHT22;8371;52.272;9.746;2022-07-03T07:34:41;32.80;37.50
16517;DHT22;8371;52.272;9.746;2022-07-03T07:37:07;32.90;37.30
16517;DHT22;8371;52.272;9.746;2022-07-03T07:39:33;32.90;37.00
16517;DHT22;8371;52.272;9.746;2022-07-03T07:41:58;33.00;36.70
16517;DHT22;8371;52.272;9.746;2022-07-03T07:44:24;33.00;36.60
16517;DHT22;8371;52.272;9.746;2022-07-03T07:46:50;33.00;36.50
16517;DHT22;8371;52.272;9.746;2022-07-03T07:49:15;32.90;36.30
16517;DHT22;8371;52.272;9.746;2022-07-03T07:51:41;32.90;36.50
16517;DHT22;8371;52.272;9.746;2022-07-03T07:54:07;32.90;36.40
16517;DHT22;8371;52.272;9.746;2022-07-03T07:56:33;32.90;36.30
16517;DHT22;8371;52.272;9.746;2022-07-03T07:58:59;32.90;36.30
16517;DHT22;8371;52.272;9.746;2022-07-03T08:01:25;32.90;36.30
16517;DHT22;8371;52.272;9.746;2022-07-03T08:04:10;33.00;36.10
16517;DHT22;8371;52.272;9.746;2022-07-03T08:06:54;33.10;36.00
16517;DHT22;8371;52.272;9.746;2022-07-03T08:09:19;33.10;36.00
16517;DHT22;8371;52.272;9.746;2022-07-03T08:11:45;33.20;36.00
16517;DHT22;8371;52.272;9.746;2022-07-03T08:14:11;33.20;36.20
16517;DHT22;8371;52.272;9.746;2022-07-03T08:16:37;33.30;35.90
16517;DHT22;8371;52.272;9.746;2022-07-03T08:19:06;33.40;36.30
16517;DHT22;8371;52.272;9.746;2022-07-03T08:21:32;33.50;36.20
16517;DHT22;8371;52.272;9.746;2022-07-03T08:23:58;33.50;35.80
16517;DHT22;8371;52.272;9.746;2022-07-03T08:26:23;33.60;35.50
16517;DHT22;8371;52.272;9.746;2022-07-03T08:28:49;33.60;35.80
16517;DHT22;8371;52.272;9.746;2022-07-03T08:31:15;33.60;34.90
16517;DHT22;8371;52.272;9.746;2022-07-03T08:33:40;33.60;35.30
16517;DHT22;8371;52.272;9.746;2022-07-03T08:36:06;33.60;35.20
16517;DHT22;8371;52.272;9.746;2022-07-03T08:38:33;33.60;34.90
16517;DHT22;8371;52.272;9.746;2022-07-03T08:41:00;33.60;34.80
16517;DHT22;8371;52.272;9.746;2022-07-03T08:43:26;33.60;34.40
16517;DHT22;8371;52.272;9.746;2022-07-03T08:45:57;33.50;33.90
16517;DHT22;8371;52.272;9.746;2022-07-03T08:48:24;33.40;33.60
16517;DHT22;8371;52.272;9.746;2022-07-03T08:50:51;33.30;33.60
16517;DHT22;8371;52.272;9.746;2022-07-03T08:53:18;33.20;33.90
16517;DHT22;8371;52.272;9.746;2022-07-03T08:55:45;33.00;33.90
16517;DHT22;8371;52.272;9.746;2022-07-03T08:58:13;32.90;34.00
16517;DHT22;8371;52.272;9.746;2022-07-03T09:00:41;32.90;33.90
16517;DHT22;8371;52.272;9.746;2022-07-03T09:03:11;32.80;34.00
16517;DHT22;8371;52.272;9.746;2022-07-03T09:05:38;32.90;34.30
16517;DHT22;8371;52.272;9.746;2022-07-03T09:08:10;32.90;34.20
16517;DHT22;8371;52.272;9.746;2022-07-03T09:10:33;32.90;34.30
16517;DHT22;8371;52.272;9.746;2022-07-03T09:12:59;33.00;34.10
16517;DHT22;8371;52.272;9.746;2022-07-03T09:15:25;33.10;33.70
16517;DHT22;8371;52.272;9.746;2022-07-03T09:17:59;33.20;34.10
16517;DHT22;8371;52.272;9.746;2022-07-03T09:20:30;33.20;33.40
16517;DHT22;8371;52.272;9.746;2022-07-03T09:25:57;33.20;32.90
16517;DHT22;8371;52.272;9.746;2022-07-03T09:28:24;33.20;33.30
16517;DHT22;8371;52.272;9.746;2022-07-03T09:30:59;33.30;33.00
16517;DHT22;8371;52.272;9.746;2022-07-03T09:33:26;33.40;33.50
16517;DHT22;8371;52.272;9.746;2022-07-03T09:35:53;33.40;32.70
16517;DHT22;8371;52.272;9.746;2022-07-03T09:38:20;33.50;33.00
16517;DHT22;8371;52.272;9.746;2022-07-03T09:40:51;33.50;32.70
16517;DHT22;8371;52.272;9.746;2022-07-03T09:43:25;33.60;32.90
16517;DHT22;8371;52.272;9.746;2022-07-03T09:46:02;33.60;32.80
16517;DHT22;8371;52.272;9.746;2022-07-03T09:48:34;33.60;32.90
16517;DHT22;8371;52.272;9.746;2022-07-03T09:53:51;33.90;32.50
16517;DHT22;8371;52.272;9.746;2022-07-03T09:56:22;33.90;32.70
16517;DHT22;8371;52.272;9.746;2022-07-03T09:59:00;34.00;32.60
16517;DHT22;8371;52.272;9.746;2022-07-03T10:01:26;34.10;32.10
16517;DHT22;8371;52.272;9.746;2022-07-03T10:03:51;34.10;31.90
16517;DHT22;8371;52.272;9.746;2022-07-03T10:06:17;34.20;32.00
16517;DHT22;8371;52.272;9.746;2022-07-03T10:08:43;34.20;31.90
16517;DHT22;8371;52.272;9.746;2022-07-03T10:11:09;34.30;31.70
16517;DHT22;8371;52.272;9.746;2022-07-03T10:13:37;34.40;31.60
16517;DHT22;8371;52.272;9.746;2022-07-03T10:16:05;34.40;31.30
16517;DHT22;8371;52.272;9.746;2022-07-03T10:18:36;34.40;31.30
16517;DHT22;8371;52.272;9.746;2022-07-03T10:21:05;34.50;31.40
16517;DHT22;8371;52.272;9.746;2022-07-03T10:23:31;34.60;31.30
16517;DHT22;8371;52.272;9.746;2022-07-03T10:25:57;34.60;31.30
16517;DHT22;8371;52.272;9.746;2022-07-03T10:28:23;34.70;31.70
16517;DHT22;8371;52.272;9.746;2022-07-03T10:30:50;34.80;31.30
16517;DHT22;8371;52.272;9.746;2022-07-03T10:33:16;34.90;31.40
16517;DHT22;8371;52.272;9.746;2022-07-03T10:35:51;35.00;31.60
16517;DHT22;8371;52.272;9.746;2022-07-03T10:38:30;35.20;31.00
16517;DHT22;8371;52.272;9.746;2022-07-03T10:41:23;35.40;31.00
16517;DHT22;8371;52.272;9.746;2022-07-03T10:44:07;35.60;30.90
16517;DHT22;8371;52.272;9.746;2022-07-03T10:46:51;35.90;31.00
16517;DHT22;8371;52.272;9.746;2022-07-03T10:49:17;36.10;30.80
16517;DHT22;8371;52.272;9.746;2022-07-03T10:51:57;36.20;30.20
16517;DHT22;8371;52.272;9.746;2022-07-03T10:54:34;36.30;30.50
16517;DHT22;8371;52.272;9.746;2022-07-03T10:57:04;36.40;29.90
16517;DHT22;8371;52.272;9.746;2022-07-03T11:07:33;36.80;30.00
16517;DHT22;8371;52.272;9.746;2022-07-03T11:13:10;37.00;29.90
16517;DHT22;8371;52.272;9.746;2022-07-03T11:15:45;37.20;29.80
16517;DHT22;8371;52.272;9.746;2022-07-03T11:18:31;37.50;30.00
16517;DHT22;8371;52.272;9.746;2022-07-03T11:23:50;37.90;29.50
16517;DHT22;8371;52.272;9.746;2022-07-03T11:36:30;38.80;28.40
16517;DHT22;8371;52.272;9.746;2022-07-03T11:39:03;38.80;28.10
16517;DHT22;8371;52.272;9.746;2022-07-03T11:44:06;38.50;27.70
16517;DHT22;8371;52.272;9.746;2022-07-03T11:46:34;38.30;27.50
16517;DHT22;8371;52.272;9.746;2022-07-03T11:49:18;38.10;28.00
16517;DHT22;8371;52.272;9.746;2022-07-03T11:51:42;37.90;28.00
16517;DHT22;8371;52.272;9.746;2022-07-03T11:54:08;37.80;28.10
16517;DHT22;8371;52.272;9.746;2022-07-03T11:56:35;37.60;28.00
16517;DHT22;8371;52.272;9.746;2022-07-03T11:59:04;37.60;28.20
16517;DHT22;8371;52.272;9.746;2022-07-03T12:01:35;37.50;28.00
16517;DHT22;8371;52.272;9.746;2022-07-03T12:04:07;37.50;28.10
16517;DHT22;8371;52.272;9.746;2022-07-03T12:09:03;37.40;28.00
16517;DHT22;8371;52.272;9.746;2022-07-03T12:11:28;37.20;27.90
16517;DHT22;8371;52.272;9.746;2022-07-03T12:13:54;37.00;27.80
16517;DHT22;8371;52.272;9.746;2022-07-03T12:16:27;36.80;27.90
16517;DHT22;8371;52.272;9.746;2022-07-03T12:18:52;36.60;27.90
16517;DHT22;8371;52.272;9.746;2022-07-03T12:21:21;36.40;27.90
16517;DHT22;8371;52.272;9.746;2022-07-03T12:23:54;36.30;28.00
16517;DHT22;8371;52.272;9.746;2022-07-03T12:26:34;36.10;28.40
16517;DHT22;8371;52.272;9.746;2022-07-03T12:29:02;36.00;28.50
16517;DHT22;8371;52.272;9.746;2022-07-03T12:31:29;36.00;28.40
16517;DHT22;8371;52.272;9.746;2022-07-03T12:33:56;35.90;28.50
16517;DHT22;8371;52.272;9.746;2022-07-03T12:36:23;35.90;28.50
16517;DHT22;8371;52.272;9.746;2022-07-03T12:38:51;35.90;28.70
16517;DHT22;8371;52.272;9.746;2022-07-03T12:41:17;35.90;28.40
16517;DHT22;8371;52.272;9.746;2022-07-03T12:43:46;36.00;28.70
16517;DHT22;8371;52.272;9.746;2022-07-03T12:46:26;35.90;28.60
16517;DHT22;8371;52.272;9.746;2022-07-03T12:48:54;36.00;28.60
16517;DHT22;8371;52.272;9.746;2022-07-03T12:51:43;36.20;28.70
16517;DHT22;8371;52.272;9.746;2022-07-03T12:54:14;36.30;28.60
16517;DHT22;8371;52.272;9.746;2022-07-03T12:56:41;36.50;28.30
16517;DHT22;8371;52.272;9.746;2022-07-03T12:59:25;36.70;28.10
16517;DHT22;8371;52.272;9.746;2022-07-03T13:02:04;36.90;28.30
16517;DHT22;8371;52.272;9.746;2022-07-03T13:04:32;37.10;27.70
16517;DHT22;8371;52.272;9.746;2022-07-03T13:07:00;37.30;28.30
16517;DHT22;8371;52.272;9.746;2022-07-03T13:09:26;37.50;28.00
16517;DHT22;8371;52.272;9.746;2022-07-03T13:11:51;37.80;27.90
16517;DHT22;8371;52.272;9.746;2022-07-03T13:14:17;38.10;27.80
16517;DHT22;8371;52.272;9.746;2022-07-03T13:16:46;38.30;27.70
16517;DHT22;8371;52.272;9.746;2022-07-03T13:19:18;38.60;27.50
16517;DHT22;8371;52.272;9.746;2022-07-03T13:21:44;38.90;27.50
16517;DHT22;8371;52.272;9.746;2022-07-03T13:24:13;39.10;27.30
16517;DHT22;8371;52.272;9.746;2022-07-03T13:26:39;39.30;27.10
16517;DHT22;8371;52.272;9.746;2022-07-03T13:29:04;39.50;26.80
16517;DHT22;8371;52.272;9.746;2022-07-03T13:31:30;39.60;26.70
16517;DHT22;8371;52.272;9.746;2022-07-03T13:33:57;39.80;26.40
16517;DHT22;8371;52.272;9.746;2022-07-03T13:36:25;39.90;26.40
16517;DHT22;8371;52.272;9.746;2022-07-03T13:38:51;40.10;26.50
16517;DHT22;8371;52.272;9.746;2022-07-03T13:41:16;40.10;25.90
16517;DHT22;8371;52.272;9.746;2022-07-03T13:43:45;40.20;25.70
16517;DHT22;8371;52.272;9.746;2022-07-03T13:46:11;40.20;25.60
16517;DHT22;8371;52.272;9.746;2022-07-03T13:48:36;40.10;25.40
16517;DHT22;8371;52.272;9.746;2022-07-03T13:51:02;39.90;25.90
16517;DHT22;8371;52.272;9.746;2022-07-03T13:53:28;39.60;25.30
16517;DHT22;8371;52.272;9.746;2022-07-03T13:55:55;39.40;25.20
16517;DHT22;8371;52.272;9.746;2022-07-03T13:58:22;39.30;25.20
16517;DHT22;8371;52.272;9.746;2022-07-03T14:00:48;39.10;25.30
16517;DHT22;8371;52.272;9.746;2022-07-03T14:03:13;38.80;25.40
16517;DHT22;8371;52.272;9.746;2022-07-03T14:05:39;38.50;25.30
16517;DHT22;8371;52.272;9.746;2022-07-03T14:08:05;38.40;25.60
16517;DHT22;8371;52.272;9.746;2022-07-03T14:10:30;38.20;25.60
16517;DHT22;8371;52.272;9.746;2022-07-03T14:12:56;38.00;25.30
16517;DHT22;8371;52.272;9.746;2022-07-03T14:15:22;37.90;25.60
16517;DHT22;8371;52.272;9.746;2022-07-03T14:17:48;37.70;25.60
16517;DHT22;8371;52.272;9.746;2022-07-03T14:20:14;37.60;25.70
16517;DHT22;8371;52.272;9.746;2022-07-03T14:22:40;37.50;25.60
16517;DHT22;8371;52.272;9.746;2022-07-03T14:25:06;37.40;25.70
16517;DHT22;8371;52.272;9.746;2022-07-03T14:27:32;37.40;25.70
16517;DHT22;8371;52.272;9.746;2022-07-03T14:30:16;37.30;25.80
16517;DHT22;8371;52.272;9.746;2022-07-03T14:33:01;37.30;26.00
16517;DHT22;8371;52.272;9.746;2022-07-03T14:35:27;37.30;26.10
16517;DHT22;8371;52.272;9.746;2022-07-03T14:37:53;37.30;25.90
16517;DHT22;8371;52.272;9.746;2022-07-03T14:40:19;37.30;25.90
16517;DHT22;8371;52.272;9.746;2022-07-03T14:42:44;37.30;25.90
16517;DHT22;8371;52.272;9.746;2022-07-03T14:45:10;37.30;25.70
16517;DHT22;8371;52.272;9.746;2022-07-03T14:47:36;37.20;25.90
16517;DHT22;8371;52.272;9.746;2022-07-03T14:50:02;37.10;25.90
16517;DHT22;8371;52.272;9.746;2022-07-03T14:52:28;37.00;26.00
16517;DHT22;8371;52.272;9.746;2022-07-03T14:54:55;36.90;26.40
16517;DHT22;8371;52.272;9.746;2022-07-03T14:57:31;36.80;26.00
16517;DHT22;8371;52.272;9.746;2022-07-03T15:00:02;36.70;25.80
16517;DHT22;8371;52.272;9.746;2022-07-03T15:02:49;36.50;25.70
16517;DHT22;8371;52.272;9.746;2022-07-03T15:05:16;36.30;25.80
16517;DHT22;8371;52.272;9.746;2022-07-03T15:10:15;35.90;26.10
16517;DHT22;8371;52.272;9.746;2022-07-03T15:12:43;35.70;26.30
16517;DHT22;8371;52.272;9.746;2022-07-03T15:15:11;35.50;26.50
16517;DHT22;8371;52.272;9.746;2022-07-03T15:17:40;35.40;26.70
16517;DHT22;8371;52.272;9.746;2022-07-03T15:20:07;35.20;26.40
16517;DHT22;8371;52.272;9.746;2022-07-03T15:22:41;35.20;26.30
16517;DHT22;8371;52.272;9.746;2022-07-03T15:25:09;35.10;26.20
16517;DHT22;8371;52.272;9.746;2022-07-03T15:27:36;35.00;26.40
16517;DHT22;8371;52.272;9.746;2022-07-03T15:30:04;34.90;26.20
16517;DHT22;8371;52.272;9.746;2022-07-03T15:32:30;34.90;26.30
16517;DHT22;8371;52.272;9.746;2022-07-03T15:34:56;34.90;26.50
16517;DHT22;8371;52.272;9.746;2022-07-03T15:40:04;34.80;26.80
16517;DHT22;8371;52.272;9.746;2022-07-03T15:42:51;34.70;26.80
16517;DHT22;8371;52.272;9.746;2022-07-03T15:45:44;34.60;27.00
16517;DHT22;8371;52.272;9.746;2022-07-03T15:48:13;34.50;27.10
16517;DHT22;8371;52.272;9.746;2022-07-03T15:50:42;34.40;27.20
16517;DHT22;8371;52.272;9.746;2022-07-03T15:53:10;34.40;27.20
16517;DHT22;8371;52.272;9.746;2022-07-03T15:55:40;34.40;27.50
16517;DHT22;8371;52.272;9.746;2022-07-03T15:58:09;34.30;27.50
16517;DHT22;8371;52.272;9.746;2022-07-03T16:00:37;34.40;27.50
16517;DHT22;8371;52.272;9.746;2022-07-03T16:05:39;34.30;27.40
16517;DHT22;8371;52.272;9.746;2022-07-03T16:08:07;34.30;27.60
16517;DHT22;8371;52.272;9.746;2022-07-03T16:10:34;34.30;27.60
16517;DHT22;8371;52.272;9.746;2022-07-03T16:13:00;34.20;27.80
16517;DHT22;8371;52.272;9.746;2022-07-03T16:15:30;34.20;27.80
16517;DHT22;8371;52.272;9.746;2022-07-03T16:17:56;34.30;28.30
16517;DHT22;8371;52.272;9.746;2022-07-03T16:20:25;34.30;27.80
16517;DHT22;8371;52.272;9.746;2022-07-03T16:22:55;34.30;27.70
16517;DHT22;8371;52.272;9.746;2022-07-03T16:25:21;34.30;27.50
16517;DHT22;8371;52.272;9.746;2022-07-03T16:27:47;34.30;27.40
16517;DHT22;8371;52.272;9.746;2022-07-03T16:30:13;34.30;27.50
16517;DHT22;8371;52.272;9.746;2022-07-03T16:32:41;34.30;27.40
16517;DHT22;8371;52.272;9.746;2022-07-03T16:35:16;34.20;27.40
16517;DHT22;8371;52.272;9.746;2022-07-03T16:37:55;34.10;27.70
16517;DHT22;8371;52.272;9.746;2022-07-03T16:40:24;34.10;27.60
16517;DHT22;8371;52.272;9.746;2022-07-03T16:42:51;34.10;27.70
16517;DHT22;8371;52.272;9.746;2022-07-03T16:45:19;34.10;27.70
16517;DHT22;8371;52.272;9.746;2022-07-03T16:47:48;34.10;27.80
16517;DHT22;8371;52.272;9.746;2022-07-03T16:50:16;34.10;27.90
16517;DHT22;8371;52.272;9.746;2022-07-03T16:52:49;34.20;28.20
16517;DHT22;8371;52.272;9.746;2022-07-03T16:55:12;34.20;28.00